sensor_id;sensor_type;location;lat;lon;timestamp;temperature;humidity
31967;DHT22;18496;52.042;6.812;2024-01-06T00:00:39;7.90;99.90
31967;DHT22;18496;52.042;6.812;2024-01-06T00:02:43;7.90;99.90
31967;DHT22;18496;52.042;6.812;2024-01-06T00:04:47;7.90;99.90
31967;DHT22;18496;52.042;6.812;2024-01-06T00:06:50;7.90;99.90
31967;DHT22;18496;52.042;6.812;2024-01-06T00:08:54;7.80;99.90
31967;DHT22;18496;52.042;6.812;2024-01-06T00:10:58;7.80;99.90
31967;DHT22;18496;52.042;6.812;2024-01-06T00:13:02;7.80;99.90
31967;DHT22;18496;52.042;6.812;2024-01-06T00:15:06;7.70;99.90
31967;DHT22;18496;52.042;6.812;2024-01-06T00:17:10;7.70;99.90
31967;DHT22;18496;52.042;6.812;2024-01-06T00:19:14;7.70;99.90
31967;DHT22;18496;52.042;6.812;2024-01-06T00:21:17;7.70;99.90
31967;DHT22;18496;52.042;6.812;2024-01-06T00:23:21;7.60;99.90
31967;DHT22;18496;52.042;6.812;2024-01-06T00:25:25;7.60;99.90
31967;DHT22;18496;52.042;6.812;2024-01-06T00:27:29;7.50;99.90
31967;DHT22;18496;52.042;6.812;2024-01-06T00:29:32;7.50;99.90
31967;DHT22;18496;52.042;6.812;2024-01-06T00:31:36;7.50;99.90
31967;DHT22;18496;52.042;6.812;2024-01-06T00:33:40;7.50;99.90
31967;DHT22;18496;52.042;6.812;2024-01-06T00:35:43;7.60;99.90
31967;DHT22;18496;52.042;6.812;2024-01-06T00:37:47;7.60;99.90
31967;DHT22;18496;52.042;6.812;2024-01-06T00:39:51;7.60;99.90
31967;DHT22;18496;52.042;6.812;2024-01-06T00:41:54;7.60;99.90
31967;DHT22;18496;52.042;6.812;2024-01-06T00:43:59;7.60;99.90
31967;DHT22;18496;52.042;6.812;2024-01-06T00:46:02;7.70;99.90
31967;DHT22;18496;52.042;6.812;2024-01-06T00:48:06;7.70;99.90
31967;DHT22;18496;52.042;6.812;2024-01-06T00:50:10;7.60;99.90
31967;DHT22;18496;52.042;6.812;2024-01-06T00:52:14;7.60;99.90
31967;DHT22;18496;52.042;6.812;2024-01-06T00:54:18;7.60;99.90
31967;DHT22;18496;52.042;6.812;2024-01-06T00:56:21;7.60;99.90
31967;DHT22;18496;52.042;6.812;2024-01-06T00:58:25;7.60;99.90
31967;DHT22;18496;52.042;6.812;2024-01-06T01:00:29;7.60;99.90
31967;DHT22;18496;52.042;6.812;2024-01-06T01:02:33;7.60;99.90
31967;DHT22;18496;52.042;6.812;2024-01-06T01:04:36;7.60;99.90
31967;DHT22;18496;52.042;6.812;2024-01-06T01:06:40;7.60;99.90
31967;DHT22;18496;52.042;6.812;2024-01-06T01:08:44;7.60;99.90
31967;DHT22;18496;52.042;6.812;2024-01-06T01:10:48;7.60;99.90
31967;DHT22;18496;52.042;6.812;2024-01-06T01:12:52;7.60;99.90
31967;DHT22;18496;52.042;6.812;2024-01-06T01:14:55;7.70;99.90
31967;DHT22;18496;52.042;6.812;2024-01-06T01:16:59;7.60;99.90
31967;DHT22;18496;52.042;6.812;2024-01-06T01:19:03;7.70;99.90
31967;DHT22;18496;52.042;6.812;2024-01-06T01:21:07;7.60;99.90
31967;DHT22;18496;52.042;6.812;2024-01-06T01:23:11;7.60;99.90
31967;DHT22;18496;52.042;6.812;2024-01-06T01:25:15;7.60;99.90
31967;DHT22;18496;52.042;6.812;2024-01-06T01:27:18;7.50;99.90
31967;DHT22;18496;52.042;6.812;2024-01-06T01:29:22;7.50;99.90
31967;DHT22;18496;52.042;6.812;2024-01-06T01:31:26;7.60;99.90
31967;DHT22;18496;52.042;6.812;2024-01-06T01:33:30;7.50;99.90
31967;DHT22;18496;52.042;6.812;2024-01-06T01:35:33;7.50;99.90
31967;DHT22;18496;52.042;6.812;2024-01-06T01:37:37;7.50;99.90
31967;DHT22;18496;52.042;6.812;2024-01-06T01:39:42;7.50;99.90
31967;DHT22;18496;52.042;6.812;2024-01-06T01:41:45;7.50;99.90
31967;DHT22;18496;52.042;6.812;2024-01-06T01:43:49;7.40;99.90
31967;DHT22;18496;52.042;6.812;2024-01-06T01:46:01;7.40;99.90
31967;DHT22;18496;52.042;6.812;2024-01-06T01:48:05;7.40;99.90
31967;DHT22;18496;52.042;6.812;2024-01-06T01:50:11;7.40;99.90
31967;DHT22;18496;52.042;6.812;2024-01-06T01:52:16;7.40;99.90
31967;DHT22;18496;52.042;6.812;2024-01-06T01:54:20;7.40;99.90
31967;DHT22;18496;52.042;6.812;2024-01-06T01:56:25;7.30;99.90
31967;DHT22;18496;52.042;6.812;2024-01-06T01:58:29;7.30;99.90
31967;DHT22;18496;52.042;6.812;2024-01-06T02:00:33;7.30;99.90
31967;DHT22;18496;52.042;6.812;2024-01-06T02:02:37;7.20;99.90
31967;DHT22;18496;52.042;6.812;2024-01-06T02:04:41;7.20;99.90
31967;DHT22;18496;52.042;6.812;2024-01-06T02:06:44;7.20;99.90
31967;DHT22;18496;52.042;6.812;2024-01-06T02:08:48;7.30;99.90
31967;DHT22;18496;52.042;6.812;2024-01-06T02:10:54;7.30;99.90
31967;DHT22;18496;52.042;6.812;2024-01-06T02:13:09;7.20;99.90
31967;DHT22;18496;52.042;6.812;2024-01-06T02:15:13;7.20;99.90
31967;DHT22;18496;52.042;6.812;2024-01-06T02:17:16;7.20;99.90
31967;DHT22;18496;52.042;6.812;2024-01-06T02:19:20;7.20;99.90
31967;DHT22;18496;52.042;6.812;2024-01-06T02:21:24;7.20;99.90
31967;DHT22;18496;52.042;6.812;2024-01-06T02:23:31;7.10;99.90
31967;DHT22;18496;52.042;6.812;2024-01-06T02:25:34;7.20;99.90
31967;DHT22;18496;52.042;6.812;2024-01-06T02:27:39;7.10;99.90
31967;DHT22;18496;52.042;6.812;2024-01-06T02:29:43;7.20;99.90
31967;DHT22;18496;52.042;6.812;2024-01-06T02:31:46;7.10;99.90
31967;DHT22;18496;52.042;6.812;2024-01-06T02:33:50;7.10;99.90
31967;DHT22;18496;52.042;6.812;2024-01-06T02:35:54;7.10;99.90
31967;DHT22;18496;52.042;6.812;2024-01-06T02:37:58;7.00;99.90
31967;DHT22;18496;52.042;6.812;2024-01-06T02:40:01;7.00;99.90
31967;DHT22;18496;52.042;6.812;2024-01-06T02:42:05;7.00;99.90
31967;DHT22;18496;52.042;6.812;2024-01-06T02:44:09;7.00;99.90
31967;DHT22;18496;52.042;6.812;2024-01-06T02:46:13;7.00;99.90
31967;DHT22;18496;52.042;6.812;2024-01-06T02:48:17;6.90;99.90
31967;DHT22;18496;52.042;6.812;2024-01-06T02:50:20;6.90;99.90
31967;DHT22;18496;52.042;6.812;2024-01-06T02:52:24;6.90;99.90
31967;DHT22;18496;52.042;6.812;2024-01-06T02:54:28;6.80;99.90
31967;DHT22;18496;52.042;6.812;2024-01-06T02:56:32;6.80;99.90
31967;DHT22;18496;52.042;6.812;2024-01-06T02:58:35;6.70;99.90
31967;DHT22;18496;52.042;6.812;2024-01-06T03:00:39;6.70;99.90
31967;DHT22;18496;52.042;6.812;2024-01-06T03:02:43;6.70;99.90
31967;DHT22;18496;52.042;6.812;2024-01-06T03:04:46;6.60;99.90
31967;DHT22;18496;52.042;6.812;2024-01-06T03:06:50;6.60;99.90
31967;DHT22;18496;52.042;6.812;2024-01-06T03:08:56;6.60;99.90
31967;DHT22;18496;52.042;6.812;2024-01-06T03:11:01;6.60;99.90
31967;DHT22;18496;52.042;6.812;2024-01-06T03:13:07;6.60;99.90
31967;DHT22;18496;52.042;6.812;2024-01-06T03:15:11;6.70;99.90
31967;DHT22;18496;52.042;6.812;2024-01-06T03:17:18;6.60;99.90
31967;DHT22;18496;52.042;6.812;2024-01-06T03:19:22;6.60;99.90
31967;DHT22;18496;52.042;6.812;2024-01-06T03:21:29;6.60;99.90
31967;DHT22;18496;52.042;6.812;2024-01-06T03:23:33;6.60;99.90
31967;DHT22;18496;52.042;6.812;2024-01-06T03:25:37;6.50;99.90
31967;DHT22;18496;52.042;6.812;2024-01-06T03:27:41;6.50;99.90
31967;DHT22;18496;52.042;6.812;2024-01-06T03:29:44;6.50;99.90
31967;DHT22;18496;52.042;6.812;2024-01-06T03:31:48;6.50;99.90
31967;DHT22;18496;52.042;6.812;2024-01-06T03:33:52;6.60;99.90
31967;DHT22;18496;52.042;6.812;2024-01-06T03:35:57;6.60;99.90
31967;DHT22;18496;52.042;6.812;2024-01-06T03:38:01;6.60;99.90
31967;DHT22;18496;52.042;6.812;2024-01-06T03:40:05;6.50;99.90
31967;DHT22;18496;52.042;6.812;2024-01-06T03:42:09;6.50;99.90
31967;DHT22;18496;52.042;6.812;2024-01-06T03:44:13;6.50;99.90
31967;DHT22;18496;52.042;6.812;2024-01-06T03:46:17;6.50;99.90
31967;DHT22;18496;52.042;6.812;2024-01-06T03:48:20;6.50;99.90
31967;DHT22;18496;52.042;6.812;2024-01-06T03:50:24;6.50;99.90
31967;DHT22;18496;52.042;6.812;2024-01-06T03:52:28;6.50;99.90
31967;DHT22;18496;52.042;6.812;2024-01-06T03:54:32;6.60;99.90
31967;DHT22;18496;52.042;6.812;2024-01-06T03:56:35;6.60;99.90
31967;DHT22;18496;52.042;6.812;2024-01-06T03:58:39;6.50;99.90
31967;DHT22;18496;52.042;6.812;2024-01-06T04:00:43;6.60;99.90
31967;DHT22;18496;52.042;6.812;2024-01-06T04:02:46;6.50;99.90
31967;DHT22;18496;52.042;6.812;2024-01-06T04:04:50;6.50;99.90
31967;DHT22;18496;52.042;6.812;2024-01-06T04:06:54;6.50;99.90
31967;DHT22;18496;52.042;6.812;2024-01-06T04:08:58;6.50;99.90
31967;DHT22;18496;52.042;6.812;2024-01-06T04:11:02;6.50;99.90
31967;DHT22;18496;52.042;6.812;2024-01-06T04:13:05;6.50;99.90
31967;DHT22;18496;52.042;6.812;2024-01-06T04:15:09;6.50;99.90
31967;DHT22;18496;52.042;6.812;2024-01-06T04:17:13;6.50;99.90
31967;DHT22;18496;52.042;6.812;2024-01-06T04:19:17;6.50;99.90
31967;DHT22;18496;52.042;6.812;2024-01-06T04:21:21;6.50;99.90
31967;DHT22;18496;52.042;6.812;2024-01-06T04:23:25;6.40;99.90
31967;DHT22;18496;52.042;6.812;2024-01-06T04:25:29;6.40;99.90
31967;DHT22;18496;52.042;6.812;2024-01-06T04:27:33;6.40;99.90
31967;DHT22;18496;52.042;6.812;2024-01-06T04:29:38;6.30;99.90
31967;DHT22;18496;52.042;6.812;2024-01-06T04:31:42;6.30;99.90
31967;DHT22;18496;52.042;6.812;2024-01-06T04:33:46;6.30;99.90
31967;DHT22;18496;52.042;6.812;2024-01-06T04:35:50;6.30;99.90
31967;DHT22;18496;52.042;6.812;2024-01-06T04:37:54;6.20;99.90
31967;DHT22;18496;52.042;6.812;2024-01-06T04:39:57;6.20;99.90
31967;DHT22;18496;52.042;6.812;2024-01-06T04:42:01;6.20;99.90
31967;DHT22;18496;52.042;6.812;2024-01-06T04:44:05;6.20;99.90
31967;DHT22;18496;52.042;6.812;2024-01-06T04:46:09;6.20;99.90
31967;DHT22;18496;52.042;6.812;2024-01-06T04:48:13;6.20;99.90
31967;DHT22;18496;52.042;6.812;2024-01-06T04:50:16;6.30;99.90
31967;DHT22;18496;52.042;6.812;2024-01-06T04:52:20;6.30;99.90
31967;DHT22;18496;52.042;6.812;2024-01-06T04:54:24;6.30;99.90
31967;DHT22;18496;52.042;6.812;2024-01-06T04:56:28;6.30;99.90
31967;DHT22;18496;52.042;6.812;2024-01-06T04:58:32;6.20;99.90
31967;DHT22;18496;52.042;6.812;2024-01-06T05:00:35;6.20;99.90
31967;DHT22;18496;52.042;6.812;2024-01-06T05:02:39;6.20;99.90
31967;DHT22;18496;52.042;6.812;2024-01-06T05:04:43;6.10;99.90
31967;DHT22;18496;52.042;6.812;2024-01-06T05:06:47;6.20;99.90
31967;DHT22;18496;52.042;6.812;2024-01-06T05:08:51;6.20;99.90
31967;DHT22;18496;52.042;6.812;2024-01-06T05:10:54;6.20;99.90
31967;DHT22;18496;52.042;6.812;2024-01-06T05:12:58;6.20;99.90
31967;DHT22;18496;52.042;6.812;2024-01-06T05:15:02;6.20;99.90
31967;DHT22;18496;52.042;6.812;2024-01-06T05:17:06;6.30;99.90
31967;DHT22;18496;52.042;6.812;2024-01-06T05:19:09;6.30;99.90
31967;DHT22;18496;52.042;6.812;2024-01-06T05:21:13;6.30;99.90
31967;DHT22;18496;52.042;6.812;2024-01-06T05:23:17;6.30;99.90
31967;DHT22;18496;52.042;6.812;2024-01-06T05:25:21;6.30;99.90
31967;DHT22;18496;52.042;6.812;2024-01-06T05:27:24;6.30;99.90
31967;DHT22;18496;52.042;6.812;2024-01-06T05:29:28;6.30;99.90
31967;DHT22;18496;52.042;6.812;2024-01-06T05:31:32;6.30;99.90
31967;DHT22;18496;52.042;6.812;2024-01-06T05:33:35;6.30;99.90
31967;DHT22;18496;52.042;6.812;2024-01-06T05:35:39;6.40;99.90
31967;DHT22;18496;52.042;6.812;2024-01-06T05:37:44;6.40;99.90
31967;DHT22;18496;52.042;6.812;2024-01-06T05:39:48;6.40;99.90
31967;DHT22;18496;52.042;6.812;2024-01-06T05:41:51;6.40;99.90
31967;DHT22;18496;52.042;6.812;2024-01-06T05:43:55;6.40;99.90
31967;DHT22;18496;52.042;6.812;2024-01-06T05:45:59;6.40;99.90
31967;DHT22;18496;52.042;6.812;2024-01-06T05:48:08;6.40;99.90
31967;DHT22;18496;52.042;6.812;2024-01-06T05:50:11;6.40;99.90
31967;DHT22;18496;52.042;6.812;2024-01-06T05:52:18;6.40;99.90
31967;DHT22;18496;52.042;6.812;2024-01-06T05:54:22;6.30;99.90
31967;DHT22;18496;52.042;6.812;2024-01-06T05:56:26;6.20;99.90
31967;DHT22;18496;52.042;6.812;2024-01-06T05:58:30;6.20;99.90
31967;DHT22;18496;52.042;6.812;2024-01-06T06:00:33;6.20;99.90
31967;DHT22;18496;52.042;6.812;2024-01-06T06:02:37;6.20;99.90
31967;DHT22;18496;52.042;6.812;2024-01-06T06:04:42;6.20;99.90
31967;DHT22;18496;52.042;6.812;2024-01-06T06:06:46;6.20;99.90
31967;DHT22;18496;52.042;6.812;2024-01-06T06:08:49;6.20;99.90
31967;DHT22;18496;52.042;6.812;2024-01-06T06:10:53;6.20;99.90
31967;DHT22;18496;52.042;6.812;2024-01-06T06:13:08;6.20;99.90
31967;DHT22;18496;52.042;6.812;2024-01-06T06:15:15;6.20;99.90
31967;DHT22;18496;52.042;6.812;2024-01-06T06:17:18;6.30;99.90
31967;DHT22;18496;52.042;6.812;2024-01-06T06:19:22;6.20;99.90
31967;DHT22;18496;52.042;6.812;2024-01-06T06:21:26;6.30;99.90
31967;DHT22;18496;52.042;6.812;2024-01-06T06:23:33;6.20;99.90
31967;DHT22;18496;52.042;6.812;2024-01-06T06:25:38;6.20;99.90
31967;DHT22;18496;52.042;6.812;2024-01-06T06:27:42;6.20;99.90
31967;DHT22;18496;52.042;6.812;2024-01-06T06:29:46;6.10;99.90
31967;DHT22;18496;52.042;6.812;2024-01-06T06:31:50;6.10;99.90
31967;DHT22;18496;52.042;6.812;2024-01-06T06:33:54;6.10;99.90
31967;DHT22;18496;52.042;6.812;2024-01-06T06:35:58;6.10;99.90
31967;DHT22;18496;52.042;6.812;2024-01-06T06:38:01;6.20;99.90
31967;DHT22;18496;52.042;6.812;2024-01-06T06:40:06;6.10;99.90
31967;DHT22;18496;52.042;6.812;2024-01-06T06:42:10;6.10;99.90
31967;DHT22;18496;52.042;6.812;2024-01-06T06:44:14;6.10;99.90
31967;DHT22;18496;52.042;6.812;2024-01-06T06:46:18;6.10;99.90
31967;DHT22;18496;52.042;6.812;2024-01-06T06:48:21;6.10;99.90
31967;DHT22;18496;52.042;6.812;2024-01-06T06:50:25;6.00;99.90
31967;DHT22;18496;52.042;6.812;2024-01-06T06:52:29;6.00;99.90
31967;DHT22;18496;52.042;6.812;2024-01-06T06:54:33;5.90;99.90
31967;DHT22;18496;52.042;6.812;2024-01-06T06:56:37;5.90;99.90
31967;DHT22;18496;52.042;6.812;2024-01-06T06:58:41;5.90;99.90
31967;DHT22;18496;52.042;6.812;2024-01-06T07:00:45;5.90;99.90
31967;DHT22;18496;52.042;6.812;2024-01-06T07:02:48;6.00;99.90
31967;DHT22;18496;52.042;6.812;2024-01-06T07:04:52;5.90;99.90
31967;DHT22;18496;52.042;6.812;2024-01-06T07:06:57;5.90;99.90
31967;DHT22;18496;52.042;6.812;2024-01-06T07:09:00;5.80;99.90
31967;DHT22;18496;52.042;6.812;2024-01-06T07:11:04;5.80;99.90
31967;DHT22;18496;52.042;6.812;2024-01-06T07:13:08;5.80;99.90
31967;DHT22;18496;52.042;6.812;2024-01-06T07:15:12;5.80;99.90
31967;DHT22;18496;52.042;6.812;2024-01-06T07:17:15;5.80;99.90
31967;DHT22;18496;52.042;6.812;2024-01-06T07:19:19;5.80;99.90
31967;DHT22;18496;52.042;6.812;2024-01-06T07:21:23;5.90;99.90
31967;DHT22;18496;52.042;6.812;2024-01-06T07:23:26;5.90;99.90
31967;DHT22;18496;52.042;6.812;2024-01-06T07:25:30;5.90;99.90
31967;DHT22;18496;52.042;6.812;2024-01-06T07:27:34;5.90;99.90
31967;DHT22;18496;52.042;6.812;2024-01-06T07:29:38;5.90;99.90
31967;DHT22;18496;52.042;6.812;2024-01-06T07:31:42;6.00;99.90
31967;DHT22;18496;52.042;6.812;2024-01-06T07:33:46;5.90;99.90
31967;DHT22;18496;52.042;6.812;2024-01-06T07:35:50;5.90;99.90
31967;DHT22;18496;52.042;6.812;2024-01-06T07:37:53;5.90;99.90
31967;DHT22;18496;52.042;6.812;2024-01-06T07:39:57;5.90;99.90
31967;DHT22;18496;52.042;6.812;2024-01-06T07:42:01;5.90;99.90
31967;DHT22;18496;52.042;6.812;2024-01-06T07:44:06;5.90;99.90
31967;DHT22;18496;52.042;6.812;2024-01-06T07:46:10;5.90;99.90
31967;DHT22;18496;52.042;6.812;2024-01-06T07:48:14;5.90;99.90
31967;DHT22;18496;52.042;6.812;2024-01-06T07:50:18;5.90;99.90
31967;DHT22;18496;52.042;6.812;2024-01-06T07:52:22;6.00;99.90
31967;DHT22;18496;52.042;6.812;2024-01-06T07:54:26;6.00;99.90
31967;DHT22;18496;52.042;6.812;2024-01-06T07:56:29;6.00;99.90
31967;DHT22;18496;52.042;6.812;2024-01-06T07:58:33;6.00;99.90
31967;DHT22;18496;52.042;6.812;2024-01-06T08:00:37;6.00;99.90
31967;DHT22;18496;52.042;6.812;2024-01-06T08:02:41;6.00;99.90
31967;DHT22;18496;52.042;6.812;2024-01-06T08:04:45;5.90;99.90
31967;DHT22;18496;52.042;6.812;2024-01-06T08:06:49;5.80;99.90
31967;DHT22;18496;52.042;6.812;2024-01-06T08:08:52;5.70;99.90
31967;DHT22;18496;52.042;6.812;2024-01-06T08:10:56;5.60;99.90
31967;DHT22;18496;52.042;6.812;2024-01-06T08:13:00;5.60;99.90
31967;DHT22;18496;52.042;6.812;2024-01-06T08:15:04;5.70;99.90
31967;DHT22;18496;52.042;6.812;2024-01-06T08:17:08;5.70;99.90
31967;DHT22;18496;52.042;6.812;2024-01-06T08:19:12;5.70;99.90
31967;DHT22;18496;52.042;6.812;2024-01-06T08:21:15;5.60;99.90
31967;DHT22;18496;52.042;6.812;2024-01-06T08:23:19;5.60;99.90
31967;DHT22;18496;52.042;6.812;2024-01-06T08:25:23;5.50;99.90
31967;DHT22;18496;52.042;6.812;2024-01-06T08:27:27;5.40;99.90
31967;DHT22;18496;52.042;6.812;2024-01-06T08:29:31;5.40;99.90
31967;DHT22;18496;52.042;6.812;2024-01-06T08:31:35;5.30;99.90
31967;DHT22;18496;52.042;6.812;2024-01-06T08:33:39;5.30;99.90
31967;DHT22;18496;52.042;6.812;2024-01-06T08:35:43;5.30;99.90
31967;DHT22;18496;52.042;6.812;2024-01-06T08:37:46;5.30;99.90
31967;DHT22;18496;52.042;6.812;2024-01-06T08:39:50;5.30;99.90
31967;DHT22;18496;52.042;6.812;2024-01-06T08:41:54;5.30;99.90
31967;DHT22;18496;52.042;6.812;2024-01-06T08:43:57;5.30;99.90
31967;DHT22;18496;52.042;6.812;2024-01-06T08:46:01;5.40;99.90
31967;DHT22;18496;52.042;6.812;2024-01-06T08:48:05;5.40;99.90
31967;DHT22;18496;52.042;6.812;2024-01-06T08:50:09;5.40;99.90
31967;DHT22;18496;52.042;6.812;2024-01-06T08:52:13;5.30;99.90
31967;DHT22;18496;52.042;6.812;2024-01-06T08:54:17;5.30;99.90
31967;DHT22;18496;52.042;6.812;2024-01-06T08:56:20;5.40;99.90
31967;DHT22;18496;52.042;6.812;2024-01-06T08:58:24;5.30;99.90
31967;DHT22;18496;52.042;6.812;2024-01-06T09:00:28;5.30;99.90
31967;DHT22;18496;52.042;6.812;2024-01-06T09:02:32;5.40;99.90
31967;DHT22;18496;52.042;6.812;2024-01-06T09:04:35;5.40;99.90
31967;DHT22;18496;52.042;6.812;2024-01-06T09:06:39;5.40;99.90
31967;DHT22;18496;52.042;6.812;2024-01-06T09:08:43;5.40;99.90
31967;DHT22;18496;52.042;6.812;2024-01-06T09:10:46;5.40;99.90
31967;DHT22;18496;52.042;6.812;2024-01-06T09:12:51;5.40;99.90
31967;DHT22;18496;52.042;6.812;2024-01-06T09:14:54;5.40;99.90
31967;DHT22;18496;52.042;6.812;2024-01-06T09:16:58;5.40;99.90
31967;DHT22;18496;52.042;6.812;2024-01-06T09:19:02;5.40;99.90
31967;DHT22;18496;52.042;6.812;2024-01-06T09:21:06;5.40;99.90
31967;DHT22;18496;52.042;6.812;2024-01-06T09:23:10;5.40;99.90
31967;DHT22;18496;52.042;6.812;2024-01-06T09:25:14;5.50;99.90
31967;DHT22;18496;52.042;6.812;2024-01-06T09:27:18;5.50;99.90
31967;DHT22;18496;52.042;6.812;2024-01-06T09:29:22;5.60;99.90
31967;DHT22;18496;52.042;6.812;2024-01-06T09:31:26;5.60;99.90
31967;DHT22;18496;52.042;6.812;2024-01-06T09:33:30;5.60;99.90
31967;DHT22;18496;52.042;6.812;2024-01-06T09:35:36;5.60;99.90
31967;DHT22;18496;52.042;6.812;2024-01-06T09:37:39;5.60;99.90
31967;DHT22;18496;52.042;6.812;2024-01-06T09:39:44;5.60;99.90
31967;DHT22;18496;52.042;6.812;2024-01-06T09:41:47;5.60;99.90
31967;DHT22;18496;52.042;6.812;2024-01-06T09:43:51;5.60;99.90
31967;DHT22;18496;52.042;6.812;2024-01-06T09:46:05;5.60;99.90
31967;DHT22;18496;52.042;6.812;2024-01-06T09:48:12;5.60;99.90
31967;DHT22;18496;52.042;6.812;2024-01-06T09:50:19;5.60;99.90
31967;DHT22;18496;52.042;6.812;2024-01-06T09:52:23;5.60;99.90
31967;DHT22;18496;52.042;6.812;2024-01-06T09:54:30;5.60;99.90
31967;DHT22;18496;52.042;6.812;2024-01-06T09:56:39;5.60;99.90
31967;DHT22;18496;52.042;6.812;2024-01-06T09:58:44;5.60;99.90
31967;DHT22;18496;52.042;6.812;2024-01-06T10:00:48;5.60;99.90
31967;DHT22;18496;52.042;6.812;2024-01-06T10:02:53;5.60;99.90
31967;DHT22;18496;52.042;6.812;2024-01-06T10:04:57;5.60;99.90
31967;DHT22;18496;52.042;6.812;2024-01-06T10:07:00;5.60;99.90
31967;DHT22;18496;52.042;6.812;2024-01-06T10:09:04;5.60;99.90
31967;DHT22;18496;52.042;6.812;2024-01-06T10:11:08;5.70;99.90
31967;DHT22;18496;52.042;6.812;2024-01-06T10:13:16;5.70;99.90
31967;DHT22;18496;52.042;6.812;2024-01-06T10:15:20;5.70;99.90
31967;DHT22;18496;52.042;6.812;2024-01-06T10:17:24;5.70;99.90
31967;DHT22;18496;52.042;6.812;2024-01-06T10:19:28;5.70;99.90
31967;DHT22;18496;52.042;6.812;2024-01-06T10:21:32;5.70;99.90
31967;DHT22;18496;52.042;6.812;2024-01-06T10:27:12;5.70;99.90
31967;DHT22;18496;52.042;6.812;2024-01-06T10:29:17;5.60;99.90
31967;DHT22;18496;52.042;6.812;2024-01-06T10:31:20;5.60;99.90
31967;DHT22;18496;52.042;6.812;2024-01-06T10:33:25;5.60;99.90
31967;DHT22;18496;52.042;6.812;2024-01-06T10:35:29;5.60;99.90
31967;DHT22;18496;52.042;6.812;2024-01-06T10:37:33;5.60;99.90
31967;DHT22;18496;52.042;6.812;2024-01-06T10:39:37;5.50;99.90
31967;DHT22;18496;52.042;6.812;2024-01-06T10:41:41;5.40;99.90
31967;DHT22;18496;52.042;6.812;2024-01-06T10:43:46;5.40;99.90
31967;DHT22;18496;52.042;6.812;2024-01-06T10:45:51;5.30;99.90
31967;DHT22;18496;52.042;6.812;2024-01-06T10:47:57;5.40;99.90
31967;DHT22;18496;52.042;6.812;2024-01-06T10:50:01;5.40;99.90
31967;DHT22;18496;52.042;6.812;2024-01-06T10:52:05;5.40;99.90
31967;DHT22;18496;52.042;6.812;2024-01-06T10:54:12;5.40;99.90
31967;DHT22;18496;52.042;6.812;2024-01-06T10:56:17;5.40;99.90
31967;DHT22;18496;52.042;6.812;2024-01-06T10:58:21;5.40;99.90
31967;DHT22;18496;52.042;6.812;2024-01-06T11:00:25;5.40;99.90
31967;DHT22;18496;52.042;6.812;2024-01-06T11:02:29;5.40;99.90
31967;DHT22;18496;52.042;6.812;2024-01-06T11:04:34;5.50;99.90
31967;DHT22;18496;52.042;6.812;2024-01-06T11:06:39;5.40;99.90
31967;DHT22;18496;52.042;6.812;2024-01-06T11:08:55;5.40;99.90
31967;DHT22;18496;52.042;6.812;2024-01-06T11:11:00;5.40;99.90
31967;DHT22;18496;52.042;6.812;2024-01-06T11:13:22;5.40;99.90
31967;DHT22;18496;52.042;6.812;2024-01-06T11:17:57;5.40;99.90
31967;DHT22;18496;52.042;6.812;2024-01-06T11:20:05;5.40;99.90
31967;DHT22;18496;52.042;6.812;2024-01-06T11:22:26;5.30;99.90
31967;DHT22;18496;52.042;6.812;2024-01-06T11:24:36;5.30;99.90
31967;DHT22;18496;52.042;6.812;2024-01-06T11:26:44;5.30;99.90
31967;DHT22;18496;52.042;6.812;2024-01-06T11:28:50;5.30;99.90
31967;DHT22;18496;52.042;6.812;2024-01-06T11:31:08;5.30;99.90
31967;DHT22;18496;52.042;6.812;2024-01-06T11:33:12;5.40;99.90
31967;DHT22;18496;52.042;6.812;2024-01-06T11:35:16;5.40;99.90
31967;DHT22;18496;52.042;6.812;2024-01-06T11:37:35;5.40;99.90
31967;DHT22;18496;52.042;6.812;2024-01-06T11:39:43;5.40;99.90
31967;DHT22;18496;52.042;6.812;2024-01-06T11:41:48;5.30;99.90
31967;DHT22;18496;52.042;6.812;2024-01-06T11:43:53;5.30;99.90
31967;DHT22;18496;52.042;6.812;2024-01-06T11:45:58;5.30;99.90
31967;DHT22;18496;52.042;6.812;2024-01-06T11:48:09;5.30;99.90
31967;DHT22;18496;52.042;6.812;2024-01-06T11:50:13;5.20;99.90
31967;DHT22;18496;52.042;6.812;2024-01-06T11:52:16;5.20;99.90
31967;DHT22;18496;52.042;6.812;2024-01-06T11:54:21;5.30;99.90
31967;DHT22;18496;52.042;6.812;2024-01-06T11:56:25;5.20;99.90
31967;DHT22;18496;52.042;6.812;2024-01-06T11:58:29;5.20;99.90
31967;DHT22;18496;52.042;6.812;2024-01-06T12:00:33;5.20;99.90
31967;DHT22;18496;52.042;6.812;2024-01-06T12:02:40;5.20;99.90
31967;DHT22;18496;52.042;6.812;2024-01-06T12:04:51;5.10;99.90
31967;DHT22;18496;52.042;6.812;2024-01-06T12:07:05;5.10;99.90
31967;DHT22;18496;52.042;6.812;2024-01-06T12:09:12;5.10;99.90
31967;DHT22;18496;52.042;6.812;2024-01-06T12:11:18;5.10;99.90
31967;DHT22;18496;52.042;6.812;2024-01-06T12:13:22;5.10;99.90
31967;DHT22;18496;52.042;6.812;2024-01-06T12:15:28;5.10;99.90
31967;DHT22;18496;52.042;6.812;2024-01-06T12:17:32;5.20;99.90
31967;DHT22;18496;52.042;6.812;2024-01-06T12:19:36;5.20;99.90
31967;DHT22;18496;52.042;6.812;2024-01-06T12:21:40;5.20;99.90
31967;DHT22;18496;52.042;6.812;2024-01-06T12:23:43;5.20;99.90
31967;DHT22;18496;52.042;6.812;2024-01-06T12:25:47;5.20;99.90
31967;DHT22;18496;52.042;6.812;2024-01-06T12:27:53;5.20;99.90
31967;DHT22;18496;52.042;6.812;2024-01-06T12:29:57;5.20;99.90
31967;DHT22;18496;52.042;6.812;2024-01-06T12:32:00;5.20;99.90
31967;DHT22;18496;52.042;6.812;2024-01-06T12:34:04;5.10;99.90
31967;DHT22;18496;52.042;6.812;2024-01-06T12:36:08;5.10;99.90
31967;DHT22;18496;52.042;6.812;2024-01-06T12:38:12;5.10;99.90
31967;DHT22;18496;52.042;6.812;2024-01-06T12:40:16;5.10;99.90
31967;DHT22;18496;52.042;6.812;2024-01-06T12:42:20;5.10;99.90
31967;DHT22;18496;52.042;6.812;2024-01-06T12:44:25;5.10;99.90
31967;DHT22;18496;52.042;6.812;2024-01-06T12:46:29;5.10;99.90
31967;DHT22;18496;52.042;6.812;2024-01-06T12:48:33;5.00;99.90
31967;DHT22;18496;52.042;6.812;2024-01-06T12:50:37;5.00;99.90
31967;DHT22;18496;52.042;6.812;2024-01-06T12:52:40;5.00;99.90
31967;DHT22;18496;52.042;6.812;2024-01-06T12:54:45;5.00;99.90
31967;DHT22;18496;52.042;6.812;2024-01-06T12:56:48;5.00;99.90
31967;DHT22;18496;52.042;6.812;2024-01-06T12:58:53;5.00;99.90
31967;DHT22;18496;52.042;6.812;2024-01-06T13:00:57;5.00;99.90
31967;DHT22;18496;52.042;6.812;2024-01-06T13:03:00;5.00;99.90
31967;DHT22;18496;52.042;6.812;2024-01-06T13:05:04;5.00;99.90
31967;DHT22;18496;52.042;6.812;2024-01-06T13:07:08;5.10;99.90
31967;DHT22;18496;52.042;6.812;2024-01-06T13:09:12;5.10;99.90
31967;DHT22;18496;52.042;6.812;2024-01-06T13:11:20;5.10;99.90
31967;DHT22;18496;52.042;6.812;2024-01-06T13:13:24;5.10;99.90
31967;DHT22;18496;52.042;6.812;2024-01-06T13:15:27;5.10;99.90
31967;DHT22;18496;52.042;6.812;2024-01-06T13:17:31;5.20;99.90
31967;DHT22;18496;52.042;6.812;2024-01-06T13:19:35;5.20;99.90
31967;DHT22;18496;52.042;6.812;2024-01-06T13:21:38;5.20;99.90
31967;DHT22;18496;52.042;6.812;2024-01-06T13:23:42;5.20;99.90